Locarno-monti, Switzerland

7:36 PM CET on December 05, 2016 (GMT +0100)
Via Migiome | | Change Station

Elev 738 ft 46.16 °N, 8.77 °E | Updated 40 seconds ago

Clear
Clear
41.0 °F
Feels Like 41 °F
N
1.2
Wind Variable Wind from NNW
Gusts 3.1 mph

Today
High -- | Low -- °F
--% Chance of Precip.
Yesterday
High -- | Low -- °F
Precip. -- in
Pressure 30.36 in
Visibility -9999.0 miles
Clouds
Windchill 41 °F
Dew Point 33 °F
Humidity 74%
Rainfall 0.00 in
Snow Depth Not available.
7:51 AM 4:39 PM
Waxing Crescent, 33% visible
METAR LSZA 051820Z VRB01KT CAVOK 04/02 Q1028 NOSIG
Pressure 30.36 in
Visibility -9999.0 miles
Clouds
Windchill 41 °F
Dew Point 33 °F
Humidity 74%
Rainfall 0.00 in
Snow Depth Not available.
7:51 AM 4:39 PM
Waxing Crescent, 33% visible
METAR LSZA 051820Z VRB01KT CAVOK 04/02 Q1028 NOSIG

10-Day Weather Forecast

×

Almanac

Astronomy

Dec. 05, 2016 Rise Set
Actual Time
Civil Twilight
Nautical Twilight
Astronomical Twilight
Moon
Length of Visible Light
Length of Day
Tomorrow will be .
, % of the Moon is Illuminated

Today's Extremes

Country Highs Country Lows

Community

WunderPhotos

Upload Photos

1,955,849 photos uploaded!

WunderBlog® & News

Nearby

Air Quality

  Air Quality AQ Index Pollutant
Not available.

Snow Depth

Station Depth Elevation

Earthquake Activity

City Distance Mag. Time & Date
Minimum magnitude displayed is 2.5.

Coastal Water Temperatures

Place Temperature

Stations

Nearby Weather Stations

Station Location Temp. Windchill Dew Point Humidity Wind Precip. Elev Updated Type